sensor_id;sensor_type;location;lat;lon;timestamp;P1;durP1;ratioP1;P2;durP2;ratioP2
27833;SDS011;15200;50.570;7.244;2023-05-10T00:00:57;1.17;;;0.40;;
27833;SDS011;15200;50.570;7.244;2023-05-10T00:03:26;0.95;;;0.33;;
27833;SDS011;15200;50.570;7.244;2023-05-10T00:05:56;2.77;;;0.70;;
27833;SDS011;15200;50.570;7.244;2023-05-10T00:08:24;1.42;;;0.33;;
27833;SDS011;15200;50.570;7.244;2023-05-10T00:10:53;0.35;;;0.23;;
27833;SDS011;15200;50.570;7.244;2023-05-10T00:13:21;0.47;;;0.20;;
27833;SDS011;15200;50.570;7.244;2023-05-10T00:15:50;1.30;;;0.30;;
27833;SDS011;15200;50.570;7.244;2023-05-10T00:18:18;1.22;;;0.40;;
27833;SDS011;15200;50.570;7.244;2023-05-10T00:20:48;0.37;;;0.30;;
27833;SDS011;15200;50.570;7.244;2023-05-10T00:23:15;2.77;;;0.30;;
27833;SDS011;15200;50.570;7.244;2023-05-10T00:25:45;2.62;;;0.42;;
27833;SDS011;15200;50.570;7.244;2023-05-10T00:28:13;2.55;;;0.37;;
27833;SDS011;15200;50.570;7.244;2023-05-10T00:30:41;0.45;;;0.37;;
27833;SDS011;15200;50.570;7.244;2023-05-10T00:33:10;1.47;;;0.30;;
27833;SDS011;15200;50.570;7.244;2023-05-10T00:35:38;2.85;;;0.40;;
27833;SDS011;15200;50.570;7.244;2023-05-10T00:38:07;0.45;;;0.30;;
27833;SDS011;15200;50.570;7.244;2023-05-10T00:40:36;0.50;;;0.20;;
27833;SDS011;15200;50.570;7.244;2023-05-10T00:43:05;3.75;;;0.40;;
27833;SDS011;15200;50.570;7.244;2023-05-10T00:45:36;2.47;;;0.40;;
27833;SDS011;15200;50.570;7.244;2023-05-10T00:48:04;0.88;;;0.37;;
27833;SDS011;15200;50.570;7.244;2023-05-10T00:50:34;2.12;;;0.30;;
27833;SDS011;15200;50.570;7.244;2023-05-10T00:53:01;2.12;;;0.37;;
27833;SDS011;15200;50.570;7.244;2023-05-10T00:55:31;2.37;;;0.30;;
27833;SDS011;15200;50.570;7.244;2023-05-10T00:57:59;4.28;;;0.65;;
27833;SDS011;15200;50.570;7.244;2023-05-10T01:00:29;2.05;;;0.55;;
27833;SDS011;15200;50.570;7.244;2023-05-10T01:02:59;2.80;;;0.45;;
27833;SDS011;15200;50.570;7.244;2023-05-10T01:05:28;0.50;;;0.40;;
27833;SDS011;15200;50.570;7.244;2023-05-10T01:07:58;0.68;;;0.42;;
27833;SDS011;15200;50.570;7.244;2023-05-10T01:10:25;2.30;;;0.50;;
27833;SDS011;15200;50.570;7.244;2023-05-10T01:12:54;1.20;;;0.40;;
27833;SDS011;15200;50.570;7.244;2023-05-10T01:15:23;0.65;;;0.40;;
27833;SDS011;15200;50.570;7.244;2023-05-10T01:17:51;2.55;;;0.50;;
27833;SDS011;15200;50.570;7.244;2023-05-10T01:20:21;0.88;;;0.60;;
27833;SDS011;15200;50.570;7.244;2023-05-10T01:22:59;2.72;;;0.30;;
27833;SDS011;15200;50.570;7.244;2023-05-10T01:30:35;8.05;;;0.40;;
27833;SDS011;15200;50.570;7.244;2023-05-10T01:33:01;2.67;;;0.68;;
27833;SDS011;15200;50.570;7.244;2023-05-10T01:35:41;0.35;;;0.35;;
27833;SDS011;15200;50.570;7.244;2023-05-10T01:38:17;5.17;;;0.70;;
27833;SDS011;15200;50.570;7.244;2023-05-10T01:41:03;1.07;;;0.30;;
27833;SDS011;15200;50.570;7.244;2023-05-10T01:43:26;3.22;;;0.42;;
27833;SDS011;15200;50.570;7.244;2023-05-10T01:45:59;3.62;;;0.50;;
27833;SDS011;15200;50.570;7.244;2023-05-10T01:48:25;4.08;;;0.60;;
27833;SDS011;15200;50.570;7.244;2023-05-10T01:50:57;0.98;;;0.50;;
27833;SDS011;15200;50.570;7.244;2023-05-10T01:53:26;1.25;;;0.50;;
27833;SDS011;15200;50.570;7.244;2023-05-10T01:55:55;3.22;;;0.90;;
27833;SDS011;15200;50.570;7.244;2023-05-10T01:58:25;1.20;;;0.47;;
27833;SDS011;15200;50.570;7.244;2023-05-10T02:00:52;1.40;;;0.50;;
27833;SDS011;15200;50.570;7.244;2023-05-10T02:03:23;2.30;;;0.40;;
27833;SDS011;15200;50.570;7.244;2023-05-10T02:05:52;1.22;;;0.55;;
27833;SDS011;15200;50.570;7.244;2023-05-10T02:08:22;0.50;;;0.35;;
27833;SDS011;15200;50.570;7.244;2023-05-10T02:10:50;5.42;;;0.60;;
27833;SDS011;15200;50.570;7.244;2023-05-10T02:13:19;1.07;;;0.40;;
27833;SDS011;15200;50.570;7.244;2023-05-10T02:15:48;2.05;;;0.53;;
27833;SDS011;15200;50.570;7.244;2023-05-10T02:18:18;0.35;;;0.30;;
27833;SDS011;15200;50.570;7.244;2023-05-10T02:20:49;1.52;;;0.45;;
27833;SDS011;15200;50.570;7.244;2023-05-10T02:23:18;0.75;;;0.50;;
27833;SDS011;15200;50.570;7.244;2023-05-10T02:25:48;0.50;;;0.47;;
27833;SDS011;15200;50.570;7.244;2023-05-10T02:28:17;0.50;;;0.40;;
27833;SDS011;15200;50.570;7.244;2023-05-10T02:30:46;2.72;;;0.60;;
27833;SDS011;15200;50.570;7.244;2023-05-10T02:33:15;0.40;;;0.40;;
27833;SDS011;15200;50.570;7.244;2023-05-10T02:35:45;0.40;;;0.40;;
27833;SDS011;15200;50.570;7.244;2023-05-10T02:38:13;0.42;;;0.33;;
27833;SDS011;15200;50.570;7.244;2023-05-10T02:40:43;1.22;;;0.50;;
27833;SDS011;15200;50.570;7.244;2023-05-10T02:43:12;0.50;;;0.45;;
27833;SDS011;15200;50.570;7.244;2023-05-10T02:45:42;0.45;;;0.45;;
27833;SDS011;15200;50.570;7.244;2023-05-10T02:48:14;1.42;;;0.60;;
27833;SDS011;15200;50.570;7.244;2023-05-10T02:50:45;0.40;;;0.40;;
27833;SDS011;15200;50.570;7.244;2023-05-10T02:53:18;0.50;;;0.50;;
27833;SDS011;15200;50.570;7.244;2023-05-10T02:55:45;0.72;;;0.40;;
27833;SDS011;15200;50.570;7.244;2023-05-10T02:58:17;0.50;;;0.50;;
27833;SDS011;15200;50.570;7.244;2023-05-10T03:00:48;2.95;;;0.47;;
27833;SDS011;15200;50.570;7.244;2023-05-10T03:03:19;2.50;;;0.62;;
27833;SDS011;15200;50.570;7.244;2023-05-10T03:05:48;2.40;;;0.60;;
27833;SDS011;15200;50.570;7.244;2023-05-10T03:08:17;0.62;;;0.55;;
27833;SDS011;15200;50.570;7.244;2023-05-10T03:11:06;3.33;;;0.90;;
27833;SDS011;15200;50.570;7.244;2023-05-10T03:13:44;0.40;;;0.40;;
27833;SDS011;15200;50.570;7.244;2023-05-10T03:16:14;2.85;;;0.40;;
27833;SDS011;15200;50.570;7.244;2023-05-10T03:18:42;1.90;;;0.60;;
27833;SDS011;15200;50.570;7.244;2023-05-10T03:21:08;3.95;;;0.70;;
27833;SDS011;15200;50.570;7.244;2023-05-10T03:23:40;0.53;;;0.53;;
27833;SDS011;15200;50.570;7.244;2023-05-10T03:26:09;0.82;;;0.40;;
27833;SDS011;15200;50.570;7.244;2023-05-10T03:28:39;1.07;;;0.60;;
27833;SDS011;15200;50.570;7.244;2023-05-10T03:31:09;2.58;;;0.70;;
27833;SDS011;15200;50.570;7.244;2023-05-10T03:33:45;4.83;;;0.80;;
27833;SDS011;15200;50.570;7.244;2023-05-10T03:36:09;1.52;;;0.50;;
27833;SDS011;15200;50.570;7.244;2023-05-10T03:38:37;3.42;;;0.70;;
27833;SDS011;15200;50.570;7.244;2023-05-10T03:41:05;1.12;;;0.90;;
27833;SDS011;15200;50.570;7.244;2023-05-10T03:43:35;3.15;;;0.80;;
27833;SDS011;15200;50.570;7.244;2023-05-10T03:46:04;1.27;;;0.88;;
27833;SDS011;15200;50.570;7.244;2023-05-10T03:48:34;1.70;;;0.95;;
27833;SDS011;15200;50.570;7.244;2023-05-10T03:51:05;3.08;;;0.93;;
27833;SDS011;15200;50.570;7.244;2023-05-10T03:53:34;1.37;;;0.72;;
27833;SDS011;15200;50.570;7.244;2023-05-10T03:56:02;2.65;;;0.90;;
27833;SDS011;15200;50.570;7.244;2023-05-10T03:58:29;1.42;;;0.98;;
27833;SDS011;15200;50.570;7.244;2023-05-10T04:00:58;1.20;;;1.07;;
27833;SDS011;15200;50.570;7.244;2023-05-10T04:03:27;1.95;;;1.00;;
27833;SDS011;15200;50.570;7.244;2023-05-10T04:05:58;0.90;;;0.88;;
27833;SDS011;15200;50.570;7.244;2023-05-10T04:08:28;2.85;;;1.20;;
27833;SDS011;15200;50.570;7.244;2023-05-10T04:11:06;3.50;;;1.00;;
27833;SDS011;15200;50.570;7.244;2023-05-10T04:13:35;2.20;;;1.37;;
27833;SDS011;15200;50.570;7.244;2023-05-10T04:16:02;1.92;;;1.22;;
27833;SDS011;15200;50.570;7.244;2023-05-10T04:18:32;2.47;;;1.30;;
27833;SDS011;15200;50.570;7.244;2023-05-10T04:20:59;2.25;;;1.30;;
27833;SDS011;15200;50.570;7.244;2023-05-10T04:23:29;1.90;;;1.17;;
27833;SDS011;15200;50.570;7.244;2023-05-10T04:26:01;1.35;;;1.12;;
27833;SDS011;15200;50.570;7.244;2023-05-10T04:28:29;2.77;;;1.75;;
27833;SDS011;15200;50.570;7.244;2023-05-10T04:31:01;3.60;;;1.70;;
27833;SDS011;15200;50.570;7.244;2023-05-10T04:33:30;3.00;;;1.25;;
27833;SDS011;15200;50.570;7.244;2023-05-10T04:35:59;2.45;;;1.50;;
27833;SDS011;15200;50.570;7.244;2023-05-10T04:38:30;1.75;;;1.40;;
27833;SDS011;15200;50.570;7.244;2023-05-10T04:41:07;2.47;;;1.45;;
27833;SDS011;15200;50.570;7.244;2023-05-10T04:43:39;1.80;;;1.40;;
27833;SDS011;15200;50.570;7.244;2023-05-10T04:46:08;1.90;;;1.32;;
27833;SDS011;15200;50.570;7.244;2023-05-10T04:48:36;4.05;;;1.52;;
27833;SDS011;15200;50.570;7.244;2023-05-10T04:51:03;1.92;;;1.72;;
27833;SDS011;15200;50.570;7.244;2023-05-10T04:53:33;4.17;;;1.50;;
27833;SDS011;15200;50.570;7.244;2023-05-10T04:56:01;1.95;;;1.37;;
27833;SDS011;15200;50.570;7.244;2023-05-10T04:58:30;2.00;;;1.57;;
27833;SDS011;15200;50.570;7.244;2023-05-10T05:01:04;3.15;;;1.40;;
27833;SDS011;15200;50.570;7.244;2023-05-10T05:03:27;3.30;;;2.05;;
27833;SDS011;15200;50.570;7.244;2023-05-10T05:05:55;3.15;;;2.30;;
27833;SDS011;15200;50.570;7.244;2023-05-10T05:08:24;5.28;;;2.30;;
27833;SDS011;15200;50.570;7.244;2023-05-10T05:10:52;3.25;;;2.27;;
27833;SDS011;15200;50.570;7.244;2023-05-10T05:13:23;2.98;;;2.40;;
27833;SDS011;15200;50.570;7.244;2023-05-10T05:15:52;4.22;;;2.55;;
27833;SDS011;15200;50.570;7.244;2023-05-10T05:18:22;4.53;;;3.17;;
27833;SDS011;15200;50.570;7.244;2023-05-10T05:20:50;7.80;;;3.33;;
27833;SDS011;15200;50.570;7.244;2023-05-10T05:23:18;5.62;;;3.50;;
27833;SDS011;15200;50.570;7.244;2023-05-10T05:25:48;7.33;;;3.37;;
27833;SDS011;15200;50.570;7.244;2023-05-10T05:28:15;6.10;;;3.42;;
27833;SDS011;15200;50.570;7.244;2023-05-10T05:30:45;5.72;;;3.45;;
27833;SDS011;15200;50.570;7.244;2023-05-10T05:33:13;4.78;;;3.50;;
27833;SDS011;15200;50.570;7.244;2023-05-10T05:35:42;5.45;;;3.37;;
27833;SDS011;15200;50.570;7.244;2023-05-10T05:38:14;5.75;;;3.33;;
27833;SDS011;15200;50.570;7.244;2023-05-10T05:40:44;5.37;;;3.20;;
27833;SDS011;15200;50.570;7.244;2023-05-10T05:43:15;4.15;;;3.47;;
27833;SDS011;15200;50.570;7.244;2023-05-10T05:45:44;6.03;;;3.90;;
27833;SDS011;15200;50.570;7.244;2023-05-10T05:48:12;5.72;;;3.70;;
27833;SDS011;15200;50.570;7.244;2023-05-10T05:50:39;7.83;;;3.85;;
27833;SDS011;15200;50.570;7.244;2023-05-10T05:53:07;8.33;;;3.58;;
27833;SDS011;15200;50.570;7.244;2023-05-10T05:55:37;5.15;;;3.05;;
27833;SDS011;15200;50.570;7.244;2023-05-10T05:58:06;4.25;;;3.27;;
27833;SDS011;15200;50.570;7.244;2023-05-10T06:00:34;4.65;;;3.17;;
27833;SDS011;15200;50.570;7.244;2023-05-10T06:03:03;2.67;;;2.40;;
27833;SDS011;15200;50.570;7.244;2023-05-10T06:05:31;6.30;;;3.50;;
27833;SDS011;15200;50.570;7.244;2023-05-10T06:08:02;3.72;;;2.70;;
27833;SDS011;15200;50.570;7.244;2023-05-10T06:10:32;3.90;;;2.52;;
27833;SDS011;15200;50.570;7.244;2023-05-10T06:13:00;5.12;;;2.45;;
27833;SDS011;15200;50.570;7.244;2023-05-10T06:15:29;3.10;;;2.65;;
27833;SDS011;15200;50.570;7.244;2023-05-10T06:17:57;4.10;;;2.37;;
27833;SDS011;15200;50.570;7.244;2023-05-10T06:20:26;6.35;;;2.80;;
27833;SDS011;15200;50.570;7.244;2023-05-10T06:22:54;3.02;;;2.45;;
27833;SDS011;15200;50.570;7.244;2023-05-10T06:25:23;2.52;;;2.27;;
27833;SDS011;15200;50.570;7.244;2023-05-10T06:27:51;6.35;;;2.47;;
27833;SDS011;15200;50.570;7.244;2023-05-10T06:30:21;3.37;;;2.45;;
27833;SDS011;15200;50.570;7.244;2023-05-10T06:32:51;8.08;;;2.33;;
27833;SDS011;15200;50.570;7.244;2023-05-10T06:35:21;5.10;;;2.35;;
27833;SDS011;15200;50.570;7.244;2023-05-10T06:37:49;3.00;;;2.70;;
27833;SDS011;15200;50.570;7.244;2023-05-10T06:40:18;3.62;;;2.80;;
27833;SDS011;15200;50.570;7.244;2023-05-10T06:42:47;4.37;;;3.22;;
27833;SDS011;15200;50.570;7.244;2023-05-10T06:45:17;3.60;;;2.58;;
27833;SDS011;15200;50.570;7.244;2023-05-10T06:47:45;4.37;;;2.40;;
27833;SDS011;15200;50.570;7.244;2023-05-10T06:50:13;6.08;;;2.80;;
27833;SDS011;15200;50.570;7.244;2023-05-10T06:52:43;4.40;;;2.05;;
27833;SDS011;15200;50.570;7.244;2023-05-10T06:55:11;3.27;;;2.25;;
27833;SDS011;15200;50.570;7.244;2023-05-10T06:57:41;4.35;;;2.10;;
27833;SDS011;15200;50.570;7.244;2023-05-10T07:00:09;3.92;;;2.05;;
27833;SDS011;15200;50.570;7.244;2023-05-10T07:02:38;4.58;;;1.85;;
27833;SDS011;15200;50.570;7.244;2023-05-10T07:05:07;7.05;;;2.05;;
27833;SDS011;15200;50.570;7.244;2023-05-10T07:07:35;2.17;;;1.82;;
27833;SDS011;15200;50.570;7.244;2023-05-10T07:10:05;2.55;;;1.55;;
27833;SDS011;15200;50.570;7.244;2023-05-10T07:12:35;3.40;;;1.60;;
27833;SDS011;15200;50.570;7.244;2023-05-10T07:15:03;2.55;;;2.00;;
27833;SDS011;15200;50.570;7.244;2023-05-10T07:17:31;3.62;;;1.85;;
27833;SDS011;15200;50.570;7.244;2023-05-10T07:20:02;4.15;;;2.00;;
27833;SDS011;15200;50.570;7.244;2023-05-10T07:22:31;4.75;;;1.65;;
27833;SDS011;15200;50.570;7.244;2023-05-10T07:25:00;2.62;;;2.00;;
27833;SDS011;15200;50.570;7.244;2023-05-10T07:27:32;3.47;;;1.70;;
27833;SDS011;15200;50.570;7.244;2023-05-10T07:30:02;1.50;;;1.30;;
27833;SDS011;15200;50.570;7.244;2023-05-10T07:32:31;1.77;;;1.60;;
27833;SDS011;15200;50.570;7.244;2023-05-10T07:34:59;4.25;;;1.40;;
27833;SDS011;15200;50.570;7.244;2023-05-10T07:37:28;2.87;;;1.75;;
27833;SDS011;15200;50.570;7.244;2023-05-10T07:39:57;3.95;;;1.98;;
27833;SDS011;15200;50.570;7.244;2023-05-10T07:42:25;3.05;;;1.40;;
27833;SDS011;15200;50.570;7.244;2023-05-10T07:44:53;4.28;;;1.70;;
27833;SDS011;15200;50.570;7.244;2023-05-10T07:47:21;1.52;;;1.42;;
27833;SDS011;15200;50.570;7.244;2023-05-10T07:49:50;1.55;;;1.40;;
27833;SDS011;15200;50.570;7.244;2023-05-10T07:52:19;3.92;;;1.40;;
27833;SDS011;15200;50.570;7.244;2023-05-10T07:54:49;1.67;;;1.37;;
27833;SDS011;15200;50.570;7.244;2023-05-10T07:57:18;3.67;;;1.80;;
27833;SDS011;15200;50.570;7.244;2023-05-10T07:59:45;2.92;;;1.55;;
27833;SDS011;15200;50.570;7.244;2023-05-10T08:02:13;2.40;;;1.70;;
27833;SDS011;15200;50.570;7.244;2023-05-10T08:04:43;1.77;;;1.60;;
27833;SDS011;15200;50.570;7.244;2023-05-10T08:07:11;5.20;;;1.80;;
27833;SDS011;15200;50.570;7.244;2023-05-10T08:09:39;2.42;;;1.50;;
27833;SDS011;15200;50.570;7.244;2023-05-10T08:12:07;2.27;;;1.80;;
27833;SDS011;15200;50.570;7.244;2023-05-10T08:14:37;2.25;;;1.70;;
27833;SDS011;15200;50.570;7.244;2023-05-10T08:17:07;4.58;;;1.80;;
27833;SDS011;15200;50.570;7.244;2023-05-10T08:19:35;3.85;;;1.70;;
27833;SDS011;15200;50.570;7.244;2023-05-10T08:22:06;2.90;;;1.70;;
27833;SDS011;15200;50.570;7.244;2023-05-10T08:24:33;3.10;;;1.87;;
27833;SDS011;15200;50.570;7.244;2023-05-10T08:27:03;4.00;;;1.60;;
27833;SDS011;15200;50.570;7.244;2023-05-10T08:29:33;2.33;;;1.67;;
27833;SDS011;15200;50.570;7.244;2023-05-10T08:32:03;3.10;;;1.40;;
27833;SDS011;15200;50.570;7.244;2023-05-10T08:34:31;2.77;;;1.70;;
27833;SDS011;15200;50.570;7.244;2023-05-10T08:36:59;5.35;;;1.77;;
27833;SDS011;15200;50.570;7.244;2023-05-10T08:39:27;2.35;;;1.60;;
27833;SDS011;15200;50.570;7.244;2023-05-10T08:41:55;3.30;;;2.00;;
27833;SDS011;15200;50.570;7.244;2023-05-10T08:44:25;3.08;;;2.00;;
27833;SDS011;15200;50.570;7.244;2023-05-10T08:46:54;2.83;;;1.45;;
27833;SDS011;15200;50.570;7.244;2023-05-10T08:49:23;1.40;;;1.30;;
27833;SDS011;15200;50.570;7.244;2023-05-10T08:51:54;2.12;;;1.30;;
27833;SDS011;15200;50.570;7.244;2023-05-10T08:54:23;1.25;;;1.00;;
27833;SDS011;15200;50.570;7.244;2023-05-10T08:56:51;5.67;;;1.62;;
27833;SDS011;15200;50.570;7.244;2023-05-10T08:59:22;0.93;;;0.82;;
27833;SDS011;15200;50.570;7.244;2023-05-10T09:01:51;1.72;;;0.95;;
27833;SDS011;15200;50.570;7.244;2023-05-10T09:04:20;1.52;;;0.70;;
27833;SDS011;15200;50.570;7.244;2023-05-10T09:06:49;0.70;;;0.60;;
27833;SDS011;15200;50.570;7.244;2023-05-10T09:09:17;1.70;;;0.60;;
27833;SDS011;15200;50.570;7.244;2023-05-10T09:11:46;1.00;;;0.60;;
27833;SDS011;15200;50.570;7.244;2023-05-10T09:14:14;0.98;;;0.42;;
27833;SDS011;15200;50.570;7.244;2023-05-10T09:16:43;1.92;;;0.42;;
27833;SDS011;15200;50.570;7.244;2023-05-10T09:19:18;2.27;;;0.80;;
27833;SDS011;15200;50.570;7.244;2023-05-10T09:21:42;0.93;;;0.60;;
27833;SDS011;15200;50.570;7.244;2023-05-10T09:24:12;1.37;;;0.40;;
27833;SDS011;15200;50.570;7.244;2023-05-10T09:26:46;6.03;;;0.55;;
27833;SDS011;15200;50.570;7.244;2023-05-10T09:29:15;3.25;;;0.20;;
27833;SDS011;15200;50.570;7.244;2023-05-10T09:31:46;1.85;;;0.20;;
27833;SDS011;15200;50.570;7.244;2023-05-10T09:34:20;0.28;;;0.28;;
27833;SDS011;15200;50.570;7.244;2023-05-10T09:36:51;4.25;;;0.37;;
27833;SDS011;15200;50.570;7.244;2023-05-10T09:39:28;0.60;;;0.20;;
27833;SDS011;15200;50.570;7.244;2023-05-10T09:41:50;0.33;;;0.20;;
27833;SDS011;15200;50.570;7.244;2023-05-10T09:44:20;0.45;;;0.30;;
27833;SDS011;15200;50.570;7.244;2023-05-10T09:46:48;0.82;;;0.50;;
27833;SDS011;15200;50.570;7.244;2023-05-10T09:49:18;0.30;;;0.10;;
27833;SDS011;15200;50.570;7.244;2023-05-10T09:52:10;0.20;;;0.20;;
27833;SDS011;15200;50.570;7.244;2023-05-10T09:54:18;1.95;;;0.47;;
27833;SDS011;15200;50.570;7.244;2023-05-10T09:56:47;0.20;;;0.20;;
27833;SDS011;15200;50.570;7.244;2023-05-10T09:59:16;8.08;;;0.40;;
27833;SDS011;15200;50.570;7.244;2023-05-10T10:01:51;1.00;;;0.13;;
27833;SDS011;15200;50.570;7.244;2023-05-10T10:04:19;0.28;;;0.20;;
27833;SDS011;15200;50.570;7.244;2023-05-10T10:06:58;1.15;;;0.40;;
27833;SDS011;15200;50.570;7.244;2023-05-10T10:09:28;6.97;;;3.00;;
27833;SDS011;15200;50.570;7.244;2023-05-10T10:11:56;3.25;;;1.90;;
27833;SDS011;15200;50.570;7.244;2023-05-10T10:14:27;1.67;;;0.90;;
27833;SDS011;15200;50.570;7.244;2023-05-10T10:16:56;3.20;;;0.70;;
27833;SDS011;15200;50.570;7.244;2023-05-10T10:19:26;2.83;;;0.68;;
27833;SDS011;15200;50.570;7.244;2023-05-10T10:21:55;3.42;;;0.50;;
27833;SDS011;15200;50.570;7.244;2023-05-10T10:24:24;0.65;;;0.60;;
27833;SDS011;15200;50.570;7.244;2023-05-10T10:26:54;1.02;;;0.35;;
27833;SDS011;15200;50.570;7.244;2023-05-10T10:29:32;0.45;;;0.30;;
27833;SDS011;15200;50.570;7.244;2023-05-10T10:32:06;0.70;;;0.42;;
27833;SDS011;15200;50.570;7.244;2023-05-10T10:34:32;0.57;;;0.47;;
27833;SDS011;15200;50.570;7.244;2023-05-10T10:37:05;0.20;;;0.20;;
27833;SDS011;15200;50.570;7.244;2023-05-10T10:39:36;0.40;;;0.40;;
27833;SDS011;15200;50.570;7.244;2023-05-10T10:42:04;0.30;;;0.30;;
27833;SDS011;15200;50.570;7.244;2023-05-10T10:44:37;0.37;;;0.37;;
27833;SDS011;15200;50.570;7.244;2023-05-10T10:49:47;0.45;;;0.23;;
27833;SDS011;15200;50.570;7.244;2023-05-10T10:52:14;1.27;;;0.33;;
27833;SDS011;15200;50.570;7.244;2023-05-10T10:54:50;0.50;;;0.37;;
27833;SDS011;15200;50.570;7.244;2023-05-10T10:57:19;0.62;;;0.40;;
27833;SDS011;15200;50.570;7.244;2023-05-10T10:59:50;0.25;;;0.23;;
27833;SDS011;15200;50.570;7.244;2023-05-10T11:02:36;2.30;;;0.30;;
27833;SDS011;15200;50.570;7.244;2023-05-10T11:07:53;0.80;;;0.50;;
27833;SDS011;15200;50.570;7.244;2023-05-10T11:10:26;0.45;;;0.35;;
27833;SDS011;15200;50.570;7.244;2023-05-10T11:15:48;1.20;;;0.50;;
27833;SDS011;15200;50.570;7.244;2023-05-10T11:18:18;1.40;;;0.60;;
27833;SDS011;15200;50.570;7.244;2023-05-10T11:20:52;0.33;;;0.33;;
27833;SDS011;15200;50.570;7.244;2023-05-10T11:23:23;0.30;;;0.30;;
27833;SDS011;15200;50.570;7.244;2023-05-10T11:25:51;0.20;;;0.20;;
27833;SDS011;15200;50.570;7.244;2023-05-10T11:28:21;0.95;;;0.40;;
27833;SDS011;15200;50.570;7.244;2023-05-10T11:30:48;0.30;;;0.30;;
27833;SDS011;15200;50.570;7.244;2023-05-10T11:33:17;0.40;;;0.40;;
27833;SDS011;15200;50.570;7.244;2023-05-10T11:35:46;0.40;;;0.35;;
27833;SDS011;15200;50.570;7.244;2023-05-10T11:38:14;0.35;;;0.35;;
27833;SDS011;15200;50.570;7.244;2023-05-10T11:40:41;0.23;;;0.20;;
27833;SDS011;15200;50.570;7.244;2023-05-10T11:43:10;0.90;;;0.47;;
27833;SDS011;15200;50.570;7.244;2023-05-10T11:45:40;1.85;;;0.50;;
27833;SDS011;15200;50.570;7.244;2023-05-10T11:48:08;0.45;;;0.30;;
27833;SDS011;15200;50.570;7.244;2023-05-10T11:50:38;0.93;;;0.42;;
27833;SDS011;15200;50.570;7.244;2023-05-10T11:53:05;0.30;;;0.30;;
27833;SDS011;15200;50.570;7.244;2023-05-10T11:55:35;1.95;;;0.50;;
27833;SDS011;15200;50.570;7.244;2023-05-10T11:58:03;1.50;;;0.47;;
27833;SDS011;15200;50.570;7.244;2023-05-10T12:00:33;0.82;;;0.70;;
27833;SDS011;15200;50.570;7.244;2023-05-10T12:03:01;0.53;;;0.50;;
27833;SDS011;15200;50.570;7.244;2023-05-10T12:05:36;0.75;;;0.65;;
27833;SDS011;15200;50.570;7.244;2023-05-10T12:08:20;2.05;;;0.62;;
27833;SDS011;15200;50.570;7.244;2023-05-10T12:10:49;0.60;;;0.40;;
27833;SDS011;15200;50.570;7.244;2023-05-10T12:13:19;2.62;;;0.50;;
27833;SDS011;15200;50.570;7.244;2023-05-10T12:15:49;1.77;;;0.30;;
27833;SDS011;15200;50.570;7.244;2023-05-10T12:18:22;0.53;;;0.30;;
27833;SDS011;15200;50.570;7.244;2023-05-10T12:20:47;2.67;;;0.45;;
27833;SDS011;15200;50.570;7.244;2023-05-10T12:23:17;0.62;;;0.30;;
27833;SDS011;15200;50.570;7.244;2023-05-10T12:25:48;0.42;;;0.30;;
27833;SDS011;15200;50.570;7.244;2023-05-10T12:28:18;5.00;;;0.20;;
27833;SDS011;15200;50.570;7.244;2023-05-10T12:30:48;2.12;;;0.40;;
27833;SDS011;15200;50.570;7.244;2023-05-10T12:33:19;0.90;;;0.42;;
27833;SDS011;15200;50.570;7.244;2023-05-10T12:35:51;0.88;;;0.30;;
27833;SDS011;15200;50.570;7.244;2023-05-10T12:41:03;0.40;;;0.30;;
27833;SDS011;15200;50.570;7.244;2023-05-10T12:43:31;1.07;;;0.35;;
27833;SDS011;15200;50.570;7.244;2023-05-10T12:46:09;0.75;;;0.40;;
27833;SDS011;15200;50.570;7.244;2023-05-10T12:48:29;12.93;;;0.70;;
27833;SDS011;15200;50.570;7.244;2023-05-10T12:50:58;0.53;;;0.35;;
27833;SDS011;15200;50.570;7.244;2023-05-10T12:53:29;4.65;;;0.50;;
27833;SDS011;15200;50.570;7.244;2023-05-10T12:55:58;4.00;;;0.65;;
27833;SDS011;15200;50.570;7.244;2023-05-10T12:58:27;4.47;;;0.50;;
27833;SDS011;15200;50.570;7.244;2023-05-10T13:00:57;0.30;;;0.30;;
27833;SDS011;15200;50.570;7.244;2023-05-10T13:03:26;0.68;;;0.50;;
27833;SDS011;15200;50.570;7.244;2023-05-10T13:05:55;3.42;;;0.45;;
27833;SDS011;15200;50.570;7.244;2023-05-10T13:08:25;3.08;;;0.70;;
27833;SDS011;15200;50.570;7.244;2023-05-10T13:10:52;0.50;;;0.50;;
27833;SDS011;15200;50.570;7.244;2023-05-10T13:13:21;1.05;;;0.57;;
27833;SDS011;15200;50.570;7.244;2023-05-10T13:15:50;1.82;;;0.68;;
27833;SDS011;15200;50.570;7.244;2023-05-10T13:18:20;2.92;;;0.70;;
27833;SDS011;15200;50.570;7.244;2023-05-10T13:20:50;3.37;;;0.88;;
27833;SDS011;15200;50.570;7.244;2023-05-10T13:23:17;0.93;;;0.40;;
27833;SDS011;15200;50.570;7.244;2023-05-10T13:25:45;1.37;;;0.60;;
27833;SDS011;15200;50.570;7.244;2023-05-10T13:28:13;1.37;;;0.47;;
27833;SDS011;15200;50.570;7.244;2023-05-10T13:30:43;1.40;;;0.60;;
27833;SDS011;15200;50.570;7.244;2023-05-10T13:33:11;1.27;;;0.40;;
27833;SDS011;15200;50.570;7.244;2023-05-10T13:35:39;1.17;;;0.50;;
27833;SDS011;15200;50.570;7.244;2023-05-10T13:38:07;0.60;;;0.60;;
27833;SDS011;15200;50.570;7.244;2023-05-10T13:40:36;0.40;;;0.40;;
27833;SDS011;15200;50.570;7.244;2023-05-10T13:43:04;0.57;;;0.47;;
27833;SDS011;15200;50.570;7.244;2023-05-10T13:45:32;2.50;;;0.88;;
27833;SDS011;15200;50.570;7.244;2023-05-10T13:48:01;2.35;;;1.00;;
27833;SDS011;15200;50.570;7.244;2023-05-10T13:50:29;5.58;;;1.05;;
27833;SDS011;15200;50.570;7.244;2023-05-10T13:52:59;3.92;;;1.15;;
27833;SDS011;15200;50.570;7.244;2023-05-10T13:55:28;6.33;;;1.15;;
27833;SDS011;15200;50.570;7.244;2023-05-10T13:57:57;1.47;;;1.00;;
27833;SDS011;15200;50.570;7.244;2023-05-10T14:00:27;2.52;;;1.07;;
27833;SDS011;15200;50.570;7.244;2023-05-10T14:02:55;2.75;;;0.80;;
27833;SDS011;15200;50.570;7.244;2023-05-10T14:05:26;4.08;;;0.82;;
27833;SDS011;15200;50.570;7.244;2023-05-10T14:07:54;1.10;;;0.50;;
27833;SDS011;15200;50.570;7.244;2023-05-10T14:10:24;0.50;;;0.45;;
27833;SDS011;15200;50.570;7.244;2023-05-10T14:12:53;0.65;;;0.40;;
27833;SDS011;15200;50.570;7.244;2023-05-10T14:15:21;3.20;;;0.70;;
27833;SDS011;15200;50.570;7.244;2023-05-10T14:17:51;1.25;;;0.70;;
27833;SDS011;15200;50.570;7.244;2023-05-10T14:20:21;0.68;;;0.47;;
27833;SDS011;15200;50.570;7.244;2023-05-10T14:22:49;1.00;;;0.40;;
27833;SDS011;15200;50.570;7.244;2023-05-10T14:25:18;1.20;;;0.50;;
27833;SDS011;15200;50.570;7.244;2023-05-10T14:27:45;1.02;;;0.50;;
27833;SDS011;15200;50.570;7.244;2023-05-10T14:30:14;0.57;;;0.40;;
27833;SDS011;15200;50.570;7.244;2023-05-10T14:32:42;1.17;;;0.30;;
27833;SDS011;15200;50.570;7.244;2023-05-10T14:35:10;0.40;;;0.30;;
27833;SDS011;15200;50.570;7.244;2023-05-10T14:37:40;1.00;;;0.25;;
27833;SDS011;15200;50.570;7.244;2023-05-10T14:40:09;1.22;;;0.40;;
27833;SDS011;15200;50.570;7.244;2023-05-10T14:42:36;1.30;;;0.25;;
27833;SDS011;15200;50.570;7.244;2023-05-10T14:45:05;4.80;;;0.30;;
27833;SDS011;15200;50.570;7.244;2023-05-10T14:47:37;0.80;;;0.30;;
27833;SDS011;15200;50.570;7.244;2023-05-10T14:50:05;0.75;;;0.30;;
27833;SDS011;15200;50.570;7.244;2023-05-10T14:52:37;0.40;;;0.20;;
27833;SDS011;15200;50.570;7.244;2023-05-10T14:55:05;1.10;;;0.30;;
27833;SDS011;15200;50.570;7.244;2023-05-10T14:57:34;2.70;;;0.30;;
27833;SDS011;15200;50.570;7.244;2023-05-10T15:00:05;2.27;;;0.50;;
27833;SDS011;15200;50.570;7.244;2023-05-10T15:02:35;0.20;;;0.20;;
27833;SDS011;15200;50.570;7.244;2023-05-10T15:05:04;1.47;;;0.20;;
27833;SDS011;15200;50.570;7.244;2023-05-10T15:07:34;0.50;;;0.23;;
27833;SDS011;15200;50.570;7.244;2023-05-10T15:10:02;0.30;;;0.30;;
27833;SDS011;15200;50.570;7.244;2023-05-10T15:12:32;2.25;;;0.30;;
27833;SDS011;15200;50.570;7.244;2023-05-10T15:15:00;0.47;;;0.20;;
27833;SDS011;15200;50.570;7.244;2023-05-10T15:17:29;3.00;;;0.35;;